Terminal Aerodrome Forecast
Issued by NWS Knoxville/Tri Cities, TN

Home | Current Version | Previous Version | Text Only | Print | Product List | Glossary On
Versions: 1 2 3 4 5 6 7 8 9 10 11 12 13 14
000
FTUS44 KMRX 271502 AAA
TAFCHA
TAF AMD
KCHA 271502Z 2715/2812 01005KT P6SM BKN010
     FM271600 01005KT P6SM BKN035
     FM271900 36007KT P6SM SCT040 SCT090
     FM280000 01003KT P6SM SCT250=

USA.gov is the U.S. government's official web portal to all federal, state and local government web resources and services.